sensor_id;sensor_type;location;lat;lon;timestamp;P1;durP1;ratioP1;P2;durP2;ratioP2
72676;SDS011;60755;51.374;10.662;2023-05-07T00:01:18;32.93;;;20.43;;
72676;SDS011;60755;51.374;10.662;2023-05-07T00:03:46;31.97;;;19.23;;
72676;SDS011;60755;51.374;10.662;2023-05-07T00:06:14;29.67;;;18.97;;
72676;SDS011;60755;51.374;10.662;2023-05-07T00:08:41;29.70;;;19.40;;
72676;SDS011;60755;51.374;10.662;2023-05-07T00:11:08;28.93;;;19.53;;
72676;SDS011;60755;51.374;10.662;2023-05-07T00:13:35;32.03;;;20.07;;
72676;SDS011;60755;51.374;10.662;2023-05-07T00:16:03;32.83;;;20.33;;
72676;SDS011;60755;51.374;10.662;2023-05-07T00:18:31;32.23;;;19.03;;
72676;SDS011;60755;51.374;10.662;2023-05-07T00:20:59;32.27;;;19.93;;
72676;SDS011;60755;51.374;10.662;2023-05-07T00:23:27;30.17;;;19.57;;
72676;SDS011;60755;51.374;10.662;2023-05-07T00:25:54;33.73;;;21.47;;
72676;SDS011;60755;51.374;10.662;2023-05-07T00:28:21;30.70;;;19.00;;
72676;SDS011;60755;51.374;10.662;2023-05-07T00:30:48;32.73;;;20.80;;
72676;SDS011;60755;51.374;10.662;2023-05-07T00:33:15;32.00;;;21.50;;
72676;SDS011;60755;51.374;10.662;2023-05-07T00:35:43;35.20;;;20.47;;
72676;SDS011;60755;51.374;10.662;2023-05-07T00:38:12;36.53;;;22.73;;
72676;SDS011;60755;51.374;10.662;2023-05-07T00:40:39;36.30;;;22.03;;
72676;SDS011;60755;51.374;10.662;2023-05-07T00:43:06;37.37;;;22.57;;
72676;SDS011;60755;51.374;10.662;2023-05-07T00:45:34;41.53;;;23.57;;
72676;SDS011;60755;51.374;10.662;2023-05-07T00:48:02;39.73;;;23.60;;
72676;SDS011;60755;51.374;10.662;2023-05-07T00:50:30;37.83;;;22.90;;
72676;SDS011;60755;51.374;10.662;2023-05-07T00:52:59;40.10;;;23.53;;
72676;SDS011;60755;51.374;10.662;2023-05-07T00:55:28;37.93;;;22.50;;
72676;SDS011;60755;51.374;10.662;2023-05-07T00:57:56;37.33;;;23.23;;
72676;SDS011;60755;51.374;10.662;2023-05-07T01:00:23;39.37;;;23.33;;
72676;SDS011;60755;51.374;10.662;2023-05-07T01:02:51;39.33;;;24.10;;
72676;SDS011;60755;51.374;10.662;2023-05-07T01:05:19;40.20;;;23.63;;
72676;SDS011;60755;51.374;10.662;2023-05-07T01:07:48;38.90;;;23.23;;
72676;SDS011;60755;51.374;10.662;2023-05-07T01:10:17;35.47;;;22.00;;
72676;SDS011;60755;51.374;10.662;2023-05-07T01:12:47;39.53;;;23.77;;
72676;SDS011;60755;51.374;10.662;2023-05-07T01:15:15;42.57;;;22.37;;
72676;SDS011;60755;51.374;10.662;2023-05-07T01:17:43;38.90;;;23.57;;
72676;SDS011;60755;51.374;10.662;2023-05-07T01:20:17;36.40;;;22.07;;
72676;SDS011;60755;51.374;10.662;2023-05-07T01:22:48;35.30;;;22.53;;
72676;SDS011;60755;51.374;10.662;2023-05-07T01:25:16;39.40;;;22.77;;
72676;SDS011;60755;51.374;10.662;2023-05-07T01:27:48;39.10;;;22.27;;
72676;SDS011;60755;51.374;10.662;2023-05-07T01:30:16;37.70;;;21.93;;
72676;SDS011;60755;51.374;10.662;2023-05-07T01:32:46;37.77;;;21.30;;
72676;SDS011;60755;51.374;10.662;2023-05-07T01:35:18;35.70;;;21.40;;
72676;SDS011;60755;51.374;10.662;2023-05-07T01:37:49;33.40;;;20.33;;
72676;SDS011;60755;51.374;10.662;2023-05-07T01:40:17;31.63;;;19.20;;
72676;SDS011;60755;51.374;10.662;2023-05-07T01:42:45;32.60;;;19.97;;
72676;SDS011;60755;51.374;10.662;2023-05-07T01:45:14;32.77;;;20.63;;
72676;SDS011;60755;51.374;10.662;2023-05-07T01:47:42;34.27;;;20.60;;
72676;SDS011;60755;51.374;10.662;2023-05-07T01:50:10;35.70;;;21.23;;
72676;SDS011;60755;51.374;10.662;2023-05-07T01:52:38;35.63;;;20.70;;
72676;SDS011;60755;51.374;10.662;2023-05-07T01:55:07;32.50;;;19.27;;
72676;SDS011;60755;51.374;10.662;2023-05-07T01:57:34;30.13;;;18.17;;
72676;SDS011;60755;51.374;10.662;2023-05-07T02:00:02;30.17;;;17.40;;
72676;SDS011;60755;51.374;10.662;2023-05-07T02:02:41;28.43;;;16.57;;
72676;SDS011;60755;51.374;10.662;2023-05-07T02:05:18;28.93;;;16.80;;
72676;SDS011;60755;51.374;10.662;2023-05-07T02:07:49;28.47;;;17.00;;
72676;SDS011;60755;51.374;10.662;2023-05-07T02:10:18;29.53;;;18.17;;
72676;SDS011;60755;51.374;10.662;2023-05-07T02:12:45;29.20;;;17.87;;
72676;SDS011;60755;51.374;10.662;2023-05-07T02:15:13;29.07;;;18.03;;
72676;SDS011;60755;51.374;10.662;2023-05-07T02:20:26;27.77;;;17.83;;
72676;SDS011;60755;51.374;10.662;2023-05-07T02:22:53;27.93;;;17.27;;
72676;SDS011;60755;51.374;10.662;2023-05-07T02:25:22;25.83;;;16.70;;
72676;SDS011;60755;51.374;10.662;2023-05-07T02:27:49;25.50;;;15.77;;
72676;SDS011;60755;51.374;10.662;2023-05-07T02:30:19;26.47;;;16.03;;
72676;SDS011;60755;51.374;10.662;2023-05-07T02:32:50;26.40;;;16.23;;
72676;SDS011;60755;51.374;10.662;2023-05-07T02:35:18;24.87;;;15.93;;
72676;SDS011;60755;51.374;10.662;2023-05-07T02:37:45;24.60;;;16.23;;
72676;SDS011;60755;51.374;10.662;2023-05-07T02:40:13;24.87;;;15.17;;
72676;SDS011;60755;51.374;10.662;2023-05-07T02:42:42;23.47;;;15.70;;
72676;SDS011;60755;51.374;10.662;2023-05-07T02:45:09;26.67;;;16.07;;
72676;SDS011;60755;51.374;10.662;2023-05-07T02:47:38;27.00;;;16.63;;
72676;SDS011;60755;51.374;10.662;2023-05-07T02:50:07;30.27;;;17.83;;
72676;SDS011;60755;51.374;10.662;2023-05-07T02:52:34;27.67;;;16.03;;
72676;SDS011;60755;51.374;10.662;2023-05-07T02:55:01;28.83;;;16.67;;
72676;SDS011;60755;51.374;10.662;2023-05-07T02:57:29;31.90;;;17.47;;
72676;SDS011;60755;51.374;10.662;2023-05-07T02:59:58;29.37;;;17.23;;
72676;SDS011;60755;51.374;10.662;2023-05-07T03:02:28;28.63;;;17.37;;
72676;SDS011;60755;51.374;10.662;2023-05-07T03:04:55;27.17;;;16.10;;
72676;SDS011;60755;51.374;10.662;2023-05-07T03:07:22;27.23;;;16.33;;
72676;SDS011;60755;51.374;10.662;2023-05-07T03:09:49;26.83;;;15.30;;
72676;SDS011;60755;51.374;10.662;2023-05-07T03:12:17;28.83;;;16.97;;
72676;SDS011;60755;51.374;10.662;2023-05-07T03:14:44;27.47;;;15.73;;
72676;SDS011;60755;51.374;10.662;2023-05-07T03:17:13;28.37;;;17.37;;
72676;SDS011;60755;51.374;10.662;2023-05-07T03:19:41;32.23;;;17.93;;
72676;SDS011;60755;51.374;10.662;2023-05-07T03:22:09;30.40;;;16.80;;
72676;SDS011;60755;51.374;10.662;2023-05-07T03:24:36;30.80;;;17.10;;
72676;SDS011;60755;51.374;10.662;2023-05-07T03:27:03;33.27;;;18.13;;
72676;SDS011;60755;51.374;10.662;2023-05-07T03:29:30;32.80;;;17.67;;
72676;SDS011;60755;51.374;10.662;2023-05-07T03:31:58;34.90;;;18.43;;
72676;SDS011;60755;51.374;10.662;2023-05-07T03:34:26;29.80;;;17.80;;
72676;SDS011;60755;51.374;10.662;2023-05-07T03:36:53;30.00;;;18.13;;
72676;SDS011;60755;51.374;10.662;2023-05-07T03:39:23;29.33;;;17.60;;
72676;SDS011;60755;51.374;10.662;2023-05-07T03:41:50;31.60;;;18.17;;
72676;SDS011;60755;51.374;10.662;2023-05-07T03:44:17;33.63;;;17.77;;
72676;SDS011;60755;51.374;10.662;2023-05-07T03:46:45;31.57;;;18.57;;
72676;SDS011;60755;51.374;10.662;2023-05-07T03:49:15;30.90;;;18.37;;
72676;SDS011;60755;51.374;10.662;2023-05-07T03:51:44;28.53;;;16.13;;
72676;SDS011;60755;51.374;10.662;2023-05-07T03:54:11;28.77;;;17.27;;
72676;SDS011;60755;51.374;10.662;2023-05-07T03:56:43;26.53;;;15.87;;
72676;SDS011;60755;51.374;10.662;2023-05-07T03:59:10;26.50;;;16.07;;
72676;SDS011;60755;51.374;10.662;2023-05-07T04:01:37;27.73;;;15.90;;
72676;SDS011;60755;51.374;10.662;2023-05-07T04:04:05;26.67;;;15.23;;
72676;SDS011;60755;51.374;10.662;2023-05-07T04:06:34;25.37;;;15.50;;
72676;SDS011;60755;51.374;10.662;2023-05-07T04:09:03;26.83;;;16.47;;
72676;SDS011;60755;51.374;10.662;2023-05-07T04:11:30;28.20;;;16.63;;
72676;SDS011;60755;51.374;10.662;2023-05-07T04:13:58;30.10;;;17.37;;
72676;SDS011;60755;51.374;10.662;2023-05-07T04:16:25;29.40;;;18.10;;
72676;SDS011;60755;51.374;10.662;2023-05-07T04:18:52;31.33;;;17.53;;
72676;SDS011;60755;51.374;10.662;2023-05-07T04:21:20;29.57;;;17.27;;
72676;SDS011;60755;51.374;10.662;2023-05-07T04:23:49;29.10;;;15.93;;
72676;SDS011;60755;51.374;10.662;2023-05-07T04:26:18;30.57;;;16.60;;
72676;SDS011;60755;51.374;10.662;2023-05-07T04:28:47;26.60;;;15.83;;
72676;SDS011;60755;51.374;10.662;2023-05-07T04:31:15;27.20;;;15.70;;
72676;SDS011;60755;51.374;10.662;2023-05-07T04:33:43;27.13;;;16.57;;
72676;SDS011;60755;51.374;10.662;2023-05-07T04:36:13;30.83;;;18.10;;
72676;SDS011;60755;51.374;10.662;2023-05-07T04:38:47;29.70;;;18.00;;
72676;SDS011;60755;51.374;10.662;2023-05-07T04:41:19;30.87;;;17.73;;
72676;SDS011;60755;51.374;10.662;2023-05-07T04:43:46;27.90;;;17.87;;
72676;SDS011;60755;51.374;10.662;2023-05-07T04:46:15;30.70;;;17.20;;
72676;SDS011;60755;51.374;10.662;2023-05-07T04:48:42;32.93;;;18.93;;
72676;SDS011;60755;51.374;10.662;2023-05-07T04:51:10;30.87;;;18.47;;
72676;SDS011;60755;51.374;10.662;2023-05-07T04:53:37;32.80;;;16.97;;
72676;SDS011;60755;51.374;10.662;2023-05-07T04:56:05;34.77;;;19.33;;
72676;SDS011;60755;51.374;10.662;2023-05-07T04:58:40;29.17;;;16.97;;
72676;SDS011;60755;51.374;10.662;2023-05-07T05:01:08;34.33;;;17.23;;
72676;SDS011;60755;51.374;10.662;2023-05-07T05:03:36;33.67;;;17.87;;
72676;SDS011;60755;51.374;10.662;2023-05-07T05:06:05;30.70;;;17.27;;
72676;SDS011;60755;51.374;10.662;2023-05-07T05:08:33;33.47;;;18.33;;
72676;SDS011;60755;51.374;10.662;2023-05-07T05:11:02;32.50;;;19.37;;
72676;SDS011;60755;51.374;10.662;2023-05-07T05:13:31;32.10;;;17.10;;
72676;SDS011;60755;51.374;10.662;2023-05-07T05:16:00;27.70;;;16.30;;
72676;SDS011;60755;51.374;10.662;2023-05-07T05:18:30;24.97;;;15.07;;
72676;SDS011;60755;51.374;10.662;2023-05-07T05:20:57;23.47;;;13.67;;
72676;SDS011;60755;51.374;10.662;2023-05-07T05:23:25;29.63;;;17.17;;
72676;SDS011;60755;51.374;10.662;2023-05-07T05:25:55;30.20;;;17.17;;
72676;SDS011;60755;51.374;10.662;2023-05-07T05:28:25;26.27;;;14.77;;
72676;SDS011;60755;51.374;10.662;2023-05-07T05:30:53;32.97;;;17.07;;
72676;SDS011;60755;51.374;10.662;2023-05-07T05:33:23;30.07;;;16.40;;
72676;SDS011;60755;51.374;10.662;2023-05-07T05:35:50;26.73;;;15.20;;
72676;SDS011;60755;51.374;10.662;2023-05-07T05:38:17;28.27;;;14.83;;
72676;SDS011;60755;51.374;10.662;2023-05-07T05:40:46;26.63;;;13.90;;
72676;SDS011;60755;51.374;10.662;2023-05-07T05:43:14;26.27;;;13.23;;
72676;SDS011;60755;51.374;10.662;2023-05-07T05:45:42;29.13;;;15.10;;
72676;SDS011;60755;51.374;10.662;2023-05-07T05:48:09;25.63;;;14.03;;
72676;SDS011;60755;51.374;10.662;2023-05-07T05:50:38;26.07;;;14.20;;
72676;SDS011;60755;51.374;10.662;2023-05-07T05:53:06;27.10;;;13.50;;
72676;SDS011;60755;51.374;10.662;2023-05-07T05:55:33;21.43;;;12.57;;
72676;SDS011;60755;51.374;10.662;2023-05-07T05:58:00;22.33;;;12.73;;
72676;SDS011;60755;51.374;10.662;2023-05-07T06:00:29;25.17;;;13.73;;
72676;SDS011;60755;51.374;10.662;2023-05-07T06:03:01;45.07;;;25.63;;
72676;SDS011;60755;51.374;10.662;2023-05-07T06:05:29;35.27;;;21.93;;
72676;SDS011;60755;51.374;10.662;2023-05-07T06:07:57;43.67;;;25.67;;
72676;SDS011;60755;51.374;10.662;2023-05-07T06:10:28;44.87;;;27.80;;
72676;SDS011;60755;51.374;10.662;2023-05-07T06:12:56;32.37;;;19.40;;
72676;SDS011;60755;51.374;10.662;2023-05-07T06:15:23;29.07;;;17.53;;
72676;SDS011;60755;51.374;10.662;2023-05-07T06:17:51;30.60;;;20.53;;
72676;SDS011;60755;51.374;10.662;2023-05-07T06:20:18;22.67;;;14.70;;
72676;SDS011;60755;51.374;10.662;2023-05-07T06:22:45;20.83;;;13.87;;
72676;SDS011;60755;51.374;10.662;2023-05-07T06:25:16;18.00;;;12.07;;
72676;SDS011;60755;51.374;10.662;2023-05-07T06:27:43;24.37;;;15.50;;
72676;SDS011;60755;51.374;10.662;2023-05-07T06:30:10;22.90;;;12.67;;
72676;SDS011;60755;51.374;10.662;2023-05-07T06:32:39;18.60;;;11.73;;
72676;SDS011;60755;51.374;10.662;2023-05-07T06:35:08;20.70;;;12.83;;
72676;SDS011;60755;51.374;10.662;2023-05-07T06:37:38;19.83;;;13.43;;
72676;SDS011;60755;51.374;10.662;2023-05-07T06:40:10;21.60;;;13.93;;
72676;SDS011;60755;51.374;10.662;2023-05-07T06:42:40;18.83;;;12.80;;
72676;SDS011;60755;51.374;10.662;2023-05-07T06:45:36;20.33;;;14.67;;
72676;SDS011;60755;51.374;10.662;2023-05-07T06:48:05;18.90;;;13.03;;
72676;SDS011;60755;51.374;10.662;2023-05-07T06:50:40;20.63;;;13.30;;
72676;SDS011;60755;51.374;10.662;2023-05-07T06:53:08;20.83;;;13.83;;
72676;SDS011;60755;51.374;10.662;2023-05-07T06:55:35;21.53;;;14.07;;
72676;SDS011;60755;51.374;10.662;2023-05-07T06:58:05;19.07;;;12.57;;
72676;SDS011;60755;51.374;10.662;2023-05-07T07:00:32;21.97;;;13.20;;
72676;SDS011;60755;51.374;10.662;2023-05-07T07:03:00;24.63;;;14.13;;
72676;SDS011;60755;51.374;10.662;2023-05-07T07:05:27;51.97;;;26.67;;
72676;SDS011;60755;51.374;10.662;2023-05-07T07:07:55;24.27;;;15.03;;
72676;SDS011;60755;51.374;10.662;2023-05-07T07:10:23;22.37;;;14.47;;
72676;SDS011;60755;51.374;10.662;2023-05-07T07:12:51;22.67;;;14.43;;
72676;SDS011;60755;51.374;10.662;2023-05-07T07:15:21;22.60;;;14.50;;
72676;SDS011;60755;51.374;10.662;2023-05-07T07:17:50;26.00;;;15.47;;
72676;SDS011;60755;51.374;10.662;2023-05-07T07:20:17;22.30;;;14.93;;
72676;SDS011;60755;51.374;10.662;2023-05-07T07:22:45;23.80;;;15.47;;
72676;SDS011;60755;51.374;10.662;2023-05-07T07:25:14;25.20;;;16.57;;
72676;SDS011;60755;51.374;10.662;2023-05-07T07:27:41;27.57;;;17.67;;
72676;SDS011;60755;51.374;10.662;2023-05-07T07:30:09;27.87;;;16.80;;
72676;SDS011;60755;51.374;10.662;2023-05-07T07:32:40;31.27;;;17.97;;
72676;SDS011;60755;51.374;10.662;2023-05-07T07:35:08;31.07;;;17.70;;
72676;SDS011;60755;51.374;10.662;2023-05-07T07:37:36;28.13;;;16.77;;
72676;SDS011;60755;51.374;10.662;2023-05-07T07:40:04;34.77;;;20.60;;
72676;SDS011;60755;51.374;10.662;2023-05-07T07:42:32;27.43;;;17.07;;
72676;SDS011;60755;51.374;10.662;2023-05-07T07:45:00;28.90;;;17.50;;
72676;SDS011;60755;51.374;10.662;2023-05-07T07:47:31;29.20;;;17.43;;
72676;SDS011;60755;51.374;10.662;2023-05-07T07:49:59;33.27;;;18.03;;
72676;SDS011;60755;51.374;10.662;2023-05-07T07:52:27;28.97;;;17.87;;
72676;SDS011;60755;51.374;10.662;2023-05-07T07:54:54;29.20;;;18.13;;
72676;SDS011;60755;51.374;10.662;2023-05-07T07:57:22;30.03;;;18.50;;
72676;SDS011;60755;51.374;10.662;2023-05-07T07:59:49;29.80;;;18.27;;
72676;SDS011;60755;51.374;10.662;2023-05-07T08:02:16;30.80;;;19.20;;
72676;SDS011;60755;51.374;10.662;2023-05-07T08:04:43;30.20;;;19.13;;
72676;SDS011;60755;51.374;10.662;2023-05-07T08:07:12;31.87;;;19.77;;
72676;SDS011;60755;51.374;10.662;2023-05-07T08:09:42;30.67;;;19.07;;
72676;SDS011;60755;51.374;10.662;2023-05-07T08:12:10;29.47;;;18.57;;
72676;SDS011;60755;51.374;10.662;2023-05-07T08:14:38;27.50;;;18.13;;
72676;SDS011;60755;51.374;10.662;2023-05-07T08:17:06;30.10;;;19.37;;
72676;SDS011;60755;51.374;10.662;2023-05-07T08:19:35;29.23;;;18.53;;
72676;SDS011;60755;51.374;10.662;2023-05-07T08:22:04;30.80;;;20.03;;
72676;SDS011;60755;51.374;10.662;2023-05-07T08:24:32;30.73;;;19.50;;
72676;SDS011;60755;51.374;10.662;2023-05-07T08:26:59;32.37;;;19.40;;
72676;SDS011;60755;51.374;10.662;2023-05-07T08:29:27;30.70;;;19.30;;
72676;SDS011;60755;51.374;10.662;2023-05-07T08:31:53;27.83;;;18.83;;
72676;SDS011;60755;51.374;10.662;2023-05-07T08:34:21;25.40;;;17.47;;
72676;SDS011;60755;51.374;10.662;2023-05-07T08:36:50;27.80;;;18.37;;
72676;SDS011;60755;51.374;10.662;2023-05-07T08:39:20;29.63;;;18.80;;
72676;SDS011;60755;51.374;10.662;2023-05-07T08:41:51;30.10;;;19.93;;
72676;SDS011;60755;51.374;10.662;2023-05-07T08:44:22;29.67;;;18.97;;
72676;SDS011;60755;51.374;10.662;2023-05-07T08:46:52;28.03;;;18.83;;
72676;SDS011;60755;51.374;10.662;2023-05-07T08:49:23;27.50;;;19.10;;
72676;SDS011;60755;51.374;10.662;2023-05-07T08:51:51;28.07;;;18.90;;
72676;SDS011;60755;51.374;10.662;2023-05-07T08:54:19;27.13;;;18.60;;
72676;SDS011;60755;51.374;10.662;2023-05-07T08:56:47;27.70;;;18.40;;
72676;SDS011;60755;51.374;10.662;2023-05-07T08:59:16;23.67;;;16.20;;
72676;SDS011;60755;51.374;10.662;2023-05-07T09:01:44;23.77;;;16.93;;
72676;SDS011;60755;51.374;10.662;2023-05-07T09:04:11;24.30;;;18.07;;
72676;SDS011;60755;51.374;10.662;2023-05-07T09:06:39;24.97;;;17.73;;
72676;SDS011;60755;51.374;10.662;2023-05-07T09:09:09;27.10;;;18.23;;
72676;SDS011;60755;51.374;10.662;2023-05-07T09:11:41;26.73;;;18.80;;
72676;SDS011;60755;51.374;10.662;2023-05-07T09:14:09;24.80;;;18.00;;
72676;SDS011;60755;51.374;10.662;2023-05-07T09:16:40;24.60;;;17.23;;
72676;SDS011;60755;51.374;10.662;2023-05-07T09:19:08;26.00;;;18.27;;
72676;SDS011;60755;51.374;10.662;2023-05-07T09:21:36;27.33;;;18.57;;
72676;SDS011;60755;51.374;10.662;2023-05-07T09:24:06;24.20;;;17.33;;
72676;SDS011;60755;51.374;10.662;2023-05-07T09:26:38;24.07;;;17.70;;
72676;SDS011;60755;51.374;10.662;2023-05-07T09:29:07;25.67;;;18.33;;
72676;SDS011;60755;51.374;10.662;2023-05-07T09:31:36;27.50;;;18.77;;
72676;SDS011;60755;51.374;10.662;2023-05-07T09:34:05;26.37;;;17.17;;
72676;SDS011;60755;51.374;10.662;2023-05-07T09:36:35;23.33;;;17.70;;
72676;SDS011;60755;51.374;10.662;2023-05-07T09:39:02;28.47;;;20.93;;
72676;SDS011;60755;51.374;10.662;2023-05-07T09:41:30;32.10;;;20.57;;
72676;SDS011;60755;51.374;10.662;2023-05-07T09:44:12;23.00;;;17.03;;
72676;SDS011;60755;51.374;10.662;2023-05-07T09:46:44;24.33;;;17.50;;
72676;SDS011;60755;51.374;10.662;2023-05-07T09:49:23;20.17;;;15.03;;
72676;SDS011;60755;51.374;10.662;2023-05-07T09:51:58;24.60;;;16.33;;
72676;SDS011;60755;51.374;10.662;2023-05-07T09:54:29;26.73;;;18.03;;
72676;SDS011;60755;51.374;10.662;2023-05-07T09:56:57;20.83;;;15.90;;
72676;SDS011;60755;51.374;10.662;2023-05-07T09:59:29;23.90;;;18.50;;
72676;SDS011;60755;51.374;10.662;2023-05-07T10:02:00;23.40;;;17.33;;
72676;SDS011;60755;51.374;10.662;2023-05-07T10:04:30;28.60;;;20.83;;
72676;SDS011;60755;51.374;10.662;2023-05-07T10:06:59;24.43;;;17.93;;
72676;SDS011;60755;51.374;10.662;2023-05-07T10:09:27;27.53;;;20.37;;
72676;SDS011;60755;51.374;10.662;2023-05-07T10:11:55;21.63;;;16.50;;
72676;SDS011;60755;51.374;10.662;2023-05-07T10:14:23;22.03;;;17.13;;
72676;SDS011;60755;51.374;10.662;2023-05-07T10:16:51;23.03;;;17.07;;
72676;SDS011;60755;51.374;10.662;2023-05-07T10:19:21;26.07;;;18.70;;
72676;SDS011;60755;51.374;10.662;2023-05-07T10:21:55;23.53;;;18.07;;
72676;SDS011;60755;51.374;10.662;2023-05-07T10:24:31;20.50;;;14.97;;
72676;SDS011;60755;51.374;10.662;2023-05-07T10:27:00;20.23;;;15.47;;
72676;SDS011;60755;51.374;10.662;2023-05-07T10:29:32;22.03;;;16.00;;
72676;SDS011;60755;51.374;10.662;2023-05-07T10:32:11;22.10;;;16.27;;
72676;SDS011;60755;51.374;10.662;2023-05-07T10:34:50;21.93;;;16.83;;
72676;SDS011;60755;51.374;10.662;2023-05-07T10:37:22;23.17;;;17.27;;
72676;SDS011;60755;51.374;10.662;2023-05-07T10:39:51;25.20;;;18.10;;
72676;SDS011;60755;51.374;10.662;2023-05-07T10:42:19;25.53;;;19.00;;
72676;SDS011;60755;51.374;10.662;2023-05-07T10:44:51;23.33;;;17.77;;
72676;SDS011;60755;51.374;10.662;2023-05-07T10:47:23;22.90;;;17.77;;
72676;SDS011;60755;51.374;10.662;2023-05-07T11:02:12;22.90;;;16.33;;
72676;SDS011;60755;51.374;10.662;2023-05-07T11:05:18;21.57;;;15.50;;
72676;SDS011;60755;51.374;10.662;2023-05-07T11:07:53;19.13;;;15.63;;
72676;SDS011;60755;51.374;10.662;2023-05-07T11:10:24;17.60;;;14.30;;
72676;SDS011;60755;51.374;10.662;2023-05-07T11:16:17;17.63;;;14.37;;
72676;SDS011;60755;51.374;10.662;2023-05-07T11:18:47;21.10;;;15.90;;
72676;SDS011;60755;51.374;10.662;2023-05-07T11:21:33;24.40;;;16.90;;
72676;SDS011;60755;51.374;10.662;2023-05-07T11:24:24;20.30;;;16.10;;
72676;SDS011;60755;51.374;10.662;2023-05-07T11:26:59;19.13;;;15.57;;
72676;SDS011;60755;51.374;10.662;2023-05-07T11:29:28;17.23;;;13.97;;
72676;SDS011;60755;51.374;10.662;2023-05-07T11:32:07;17.57;;;14.20;;
72676;SDS011;60755;51.374;10.662;2023-05-07T11:34:40;17.60;;;14.23;;
72676;SDS011;60755;51.374;10.662;2023-05-07T11:37:08;18.80;;;14.57;;
72676;SDS011;60755;51.374;10.662;2023-05-07T11:39:45;19.70;;;15.33;;
72676;SDS011;60755;51.374;10.662;2023-05-07T11:42:27;19.33;;;14.83;;
72676;SDS011;60755;51.374;10.662;2023-05-07T11:44:54;19.60;;;14.77;;
72676;SDS011;60755;51.374;10.662;2023-05-07T11:47:21;19.17;;;15.00;;
72676;SDS011;60755;51.374;10.662;2023-05-07T11:49:49;20.30;;;14.30;;
72676;SDS011;60755;51.374;10.662;2023-05-07T11:52:17;17.80;;;14.23;;
72676;SDS011;60755;51.374;10.662;2023-05-07T11:54:48;19.27;;;14.73;;
72676;SDS011;60755;51.374;10.662;2023-05-07T11:57:16;20.30;;;15.07;;
72676;SDS011;60755;51.374;10.662;2023-05-07T11:59:44;18.80;;;14.63;;
72676;SDS011;60755;51.374;10.662;2023-05-07T12:02:14;32.03;;;23.30;;
72676;SDS011;60755;51.374;10.662;2023-05-07T12:04:42;17.70;;;14.57;;
72676;SDS011;60755;51.374;10.662;2023-05-07T12:07:11;17.93;;;14.30;;
72676;SDS011;60755;51.374;10.662;2023-05-07T12:09:38;18.37;;;14.20;;
72676;SDS011;60755;51.374;10.662;2023-05-07T12:12:05;16.60;;;14.07;;
72676;SDS011;60755;51.374;10.662;2023-05-07T12:14:37;17.00;;;14.57;;
72676;SDS011;60755;51.374;10.662;2023-05-07T12:17:05;14.23;;;12.73;;
72676;SDS011;60755;51.374;10.662;2023-05-07T12:19:33;15.17;;;13.00;;
72676;SDS011;60755;51.374;10.662;2023-05-07T12:22:01;14.53;;;12.77;;
72676;SDS011;60755;51.374;10.662;2023-05-07T12:24:30;14.87;;;12.93;;
72676;SDS011;60755;51.374;10.662;2023-05-07T12:27:09;14.37;;;12.40;;
72676;SDS011;60755;51.374;10.662;2023-05-07T12:29:36;14.97;;;12.97;;
72676;SDS011;60755;51.374;10.662;2023-05-07T12:32:06;14.57;;;12.20;;
72676;SDS011;60755;51.374;10.662;2023-05-07T12:34:39;14.20;;;12.40;;
72676;SDS011;60755;51.374;10.662;2023-05-07T12:37:06;13.17;;;11.83;;
72676;SDS011;60755;51.374;10.662;2023-05-07T12:39:33;13.10;;;11.73;;
72676;SDS011;60755;51.374;10.662;2023-05-07T12:42:00;13.37;;;12.00;;
72676;SDS011;60755;51.374;10.662;2023-05-07T12:44:28;12.87;;;11.57;;
72676;SDS011;60755;51.374;10.662;2023-05-07T12:46:57;12.83;;;11.53;;
72676;SDS011;60755;51.374;10.662;2023-05-07T12:49:27;12.40;;;10.97;;
72676;SDS011;60755;51.374;10.662;2023-05-07T12:51:54;12.07;;;10.87;;
72676;SDS011;60755;51.374;10.662;2023-05-07T12:54:28;12.57;;;11.37;;
72676;SDS011;60755;51.374;10.662;2023-05-07T12:57:00;16.23;;;14.00;;
72676;SDS011;60755;51.374;10.662;2023-05-07T12:59:31;12.50;;;11.30;;
72676;SDS011;60755;51.374;10.662;2023-05-07T13:01:59;13.83;;;12.00;;
72676;SDS011;60755;51.374;10.662;2023-05-07T13:04:27;12.37;;;11.13;;
72676;SDS011;60755;51.374;10.662;2023-05-07T13:06:54;41.70;;;26.53;;
72676;SDS011;60755;51.374;10.662;2023-05-07T13:09:21;13.17;;;11.87;;
72676;SDS011;60755;51.374;10.662;2023-05-07T13:11:48;12.50;;;11.23;;
72676;SDS011;60755;51.374;10.662;2023-05-07T13:14:15;13.47;;;12.07;;
72676;SDS011;60755;51.374;10.662;2023-05-07T13:16:41;10.93;;;9.83;;
72676;SDS011;60755;51.374;10.662;2023-05-07T13:19:08;11.03;;;10.03;;
72676;SDS011;60755;51.374;10.662;2023-05-07T13:21:37;11.07;;;10.07;;
72676;SDS011;60755;51.374;10.662;2023-05-07T13:24:05;10.37;;;9.30;;
72676;SDS011;60755;51.374;10.662;2023-05-07T13:26:32;11.63;;;10.43;;
72676;SDS011;60755;51.374;10.662;2023-05-07T13:28:59;11.10;;;9.77;;
72676;SDS011;60755;51.374;10.662;2023-05-07T13:31:26;12.87;;;10.53;;
72676;SDS011;60755;51.374;10.662;2023-05-07T13:33:53;10.43;;;9.53;;
72676;SDS011;60755;51.374;10.662;2023-05-07T13:36:21;11.55;;;10.52;;
72676;SDS011;60755;51.374;10.662;2023-05-07T13:38:49;10.35;;;9.27;;
72676;SDS011;60755;51.374;10.662;2023-05-07T13:41:16;9.52;;;8.43;;
72676;SDS011;60755;51.374;10.662;2023-05-07T13:43:43;11.15;;;10.15;;
72676;SDS011;60755;51.374;10.662;2023-05-07T13:46:10;10.70;;;9.60;;
72676;SDS011;60755;51.374;10.662;2023-05-07T13:48:37;15.00;;;13.40;;
72676;SDS011;60755;51.374;10.662;2023-05-07T13:51:04;14.30;;;12.90;;
72676;SDS011;60755;51.374;10.662;2023-05-07T13:53:31;11.20;;;9.38;;
72676;SDS011;60755;51.374;10.662;2023-05-07T13:56:00;9.67;;;8.77;;
72676;SDS011;60755;51.374;10.662;2023-05-07T13:58:29;9.43;;;8.52;;
72676;SDS011;60755;51.374;10.662;2023-05-07T14:00:57;10.02;;;9.13;;
72676;SDS011;60755;51.374;10.662;2023-05-07T14:03:24;10.50;;;9.57;;
72676;SDS011;60755;51.374;10.662;2023-05-07T14:05:51;10.83;;;9.87;;
72676;SDS011;60755;51.374;10.662;2023-05-07T14:08:18;10.73;;;9.70;;
72676;SDS011;60755;51.374;10.662;2023-05-07T14:10:45;13.97;;;12.63;;
72676;SDS011;60755;51.374;10.662;2023-05-07T14:13:13;14.48;;;13.02;;
72676;SDS011;60755;51.374;10.662;2023-05-07T14:15:40;9.80;;;9.00;;
72676;SDS011;60755;51.374;10.662;2023-05-07T14:18:11;10.23;;;9.33;;
72676;SDS011;60755;51.374;10.662;2023-05-07T14:20:38;11.83;;;10.73;;
72676;SDS011;60755;51.374;10.662;2023-05-07T14:23:05;10.50;;;9.50;;
72676;SDS011;60755;51.374;10.662;2023-05-07T14:25:32;11.07;;;10.07;;
72676;SDS011;60755;51.374;10.662;2023-05-07T14:27:59;11.10;;;10.10;;
72676;SDS011;60755;51.374;10.662;2023-05-07T14:30:27;10.57;;;9.57;;
72676;SDS011;60755;51.374;10.662;2023-05-07T14:32:54;11.43;;;10.33;;
72676;SDS011;60755;51.374;10.662;2023-05-07T14:35:21;11.17;;;10.07;;
72676;SDS011;60755;51.374;10.662;2023-05-07T14:37:48;10.63;;;9.63;;